Time;durP1;ratioP1;P1;durP2;ratioP2;P2;SDS_P1;SDS_P2;PMS_P1;PMS_P2;Temp;Humidity;BMP_temperature;BMP_pressure;BME280_temperature;BME280_humidity;BME280_pressure;Samples;Min_cycle;Max_cycle;Signal;HPM_P1;HPM_P2
2022/03/31 00:00:15;;;;;;;2.73;0.60;;;3.60;99.90;;;;;;5093231;28;20044;-73
2022/03/31 00:02:41;;;;;;;5.72;0.60;;;3.60;99.90;;;;;;5098579;28;20509;-73
2022/03/31 00:05:07;;;;;;;1.73;0.60;;;3.60;99.90;;;;;;5095847;28;20511;-73
2022/03/31 00:07:33;;;;;;;3.70;0.85;;;3.60;99.90;;;;;;5079219;28;20044;-73
2022/03/31 00:10:00;;;;;;;2.05;0.63;;;3.60;99.90;;;;;;5084469;28;20483;-73
2022/03/31 00:12:26;;;;;;;12.05;1.65;;;3.60;99.90;;;;;;5099433;28;20126;-73
2022/03/31 00:14:52;;;;;;;3.70;0.65;;;3.60;99.90;;;;;;5098907;28;20449;-73
2022/03/31 00:17:18;;;;;;;3.22;0.70;;;3.50;99.90;;;;;;5099839;28;20039;-73
2022/03/31 00:19:44;;;;;;;4.82;0.75;;;3.50;99.90;;;;;;5117360;28;20092;-73
2022/03/31 00:22:28;;;;;;;4.88;0.90;;;3.50;99.90;;;;;;5117242;28;20051;-73
2022/03/31 00:24:54;;;;;;;4.75;1.00;;;3.50;99.90;;;;;;5116966;28;20483;-73
2022/03/31 00:27:20;;;;;;;3.90;0.90;;;3.40;99.90;;;;;;5099601;28;20039;-73
2022/03/31 00:29:45;;;;;;;5.75;0.60;;;3.40;99.90;;;;;;5116652;28;20047;-73
2022/03/31 00:32:11;;;;;;;3.53;1.00;;;3.30;99.90;;;;;;5099226;28;20039;-73
2022/03/31 00:34:37;;;;;;;2.40;0.52;;;3.30;99.90;;;;;;5098941;28;20535;-73
2022/03/31 00:37:03;;;;;;;3.85;1.25;;;3.30;99.90;;;;;;5098833;28;20036;-73
2022/03/31 00:39:29;;;;;;;2.53;1.02;;;3.20;99.90;;;;;;5078480;28;20036;-73
2022/03/31 00:41:56;;;;;;;5.93;2.08;;;3.20;99.90;;;;;;5097142;28;20058;-73
2022/03/31 00:44:22;;;;;;;8.23;1.10;;;3.20;99.90;;;;;;5082285;28;20555;-73
2022/03/31 00:46:50;;;;;;;7.25;0.93;;;3.10;99.90;;;;;;5098727;28;20044;-73
2022/03/31 00:49:17;;;;;;;5.82;1.38;;;3.10;99.90;;;;;;5099069;28;20448;-73
2022/03/31 00:51:43;;;;;;;6.95;1.10;;;3.10;99.90;;;;;;5094696;28;20510;-73
2022/03/31 00:54:09;;;;;;;5.00;1.00;;;3.10;99.90;;;;;;5096104;28;20078;-73
2022/03/31 00:56:35;;;;;;;2.78;1.35;;;3.10;99.90;;;;;;5096877;28;20040;-73
2022/03/31 00:59:06;;;;;;;3.50;1.52;;;3.10;99.90;;;;;;5096105;28;20493;-73
2022/03/31 01:01:39;;;;;;;4.00;0.82;;;3.10;99.90;;;;;;5078521;28;20093;-73
2022/03/31 01:04:06;;;;;;;6.65;1.33;;;3.10;99.90;;;;;;5094410;28;20044;-73
2022/03/31 01:06:32;;;;;;;5.60;1.00;;;3.10;99.90;;;;;;5095397;28;20173;-73
2022/03/31 01:08:59;;;;;;;3.03;1.23;;;3.10;99.90;;;;;;5096055;28;20106;-73
2022/03/31 01:11:25;;;;;;;4.53;1.20;;;3.10;99.90;;;;;;5095230;28;20097;-73
2022/03/31 01:13:52;;;;;;;3.35;1.10;;;3.10;99.90;;;;;;5094892;28;20047;-73
2022/03/31 01:16:18;;;;;;;2.55;1.10;;;3.10;99.90;;;;;;5095820;28;20047;-73
2022/03/31 01:18:43;;;;;;;6.82;1.23;;;3.10;99.90;;;;;;5094037;28;20383;-73
2022/03/31 01:21:09;;;;;;;3.47;0.93;;;3.10;99.90;;;;;;5087856;28;20047;-73
2022/03/31 01:23:36;;;;;;;8.27;1.35;;;3.10;99.90;;;;;;5093010;28;20044;-73
2022/03/31 01:26:05;;;;;;;5.57;1.23;;;3.20;99.90;;;;;;5095606;28;20086;-73
2022/03/31 01:28:31;;;;;;;7.80;1.52;;;3.20;99.90;;;;;;5094236;28;20502;-73
2022/03/31 01:30:57;;;;;;;9.05;1.63;;;3.20;99.90;;;;;;5096074;28;20101;-73
2022/03/31 01:33:23;;;;;;;7.60;1.20;;;3.20;99.90;;;;;;5093944;28;20467;-73
2022/03/31 01:35:49;;;;;;;2.67;1.02;;;3.20;99.90;;;;;;5095278;28;20045;-73
2022/03/31 01:38:15;;;;;;;4.75;1.35;;;3.20;99.90;;;;;;5094715;28;20123;-73
2022/03/31 01:40:41;;;;;;;6.35;1.48;;;3.10;99.90;;;;;;5095211;28;20387;-73
2022/03/31 01:43:08;;;;;;;6.47;1.13;;;3.10;99.90;;;;;;5095544;28;20040;-73
2022/03/31 01:45:34;;;;;;;5.40;1.30;;;3.10;99.90;;;;;;5095720;28;20040;-73
2022/03/31 01:48:00;;;;;;;3.95;1.20;;;3.00;99.90;;;;;;5093828;28;20502;-73
2022/03/31 01:50:26;;;;;;;3.83;1.23;;;3.00;99.90;;;;;;5093956;28;20047;-73
2022/03/31 01:52:51;;;;;;;3.75;1.15;;;3.00;99.90;;;;;;5114163;28;20052;-73
2022/03/31 01:55:17;;;;;;;4.75;1.02;;;3.00;99.90;;;;;;5115206;28;20055;-73
2022/03/31 01:57:43;;;;;;;5.30;1.60;;;3.00;99.90;;;;;;5097757;28;20043;-73
2022/03/31 02:00:10;;;;;;;4.85;1.10;;;3.10;99.90;;;;;;5096806;28;20079;-73
2022/03/31 02:02:36;;;;;;;5.38;1.23;;;3.10;99.90;;;;;;5097677;28;20490;-73
2022/03/31 02:05:01;;;;;;;5.30;1.48;;;3.10;99.90;;;;;;5096853;28;20039;-73
2022/03/31 02:07:28;;;;;;;9.02;2.03;;;3.10;99.90;;;;;;5097032;28;20689;-73
2022/03/31 02:09:54;;;;;;;4.15;1.52;;;3.10;99.90;;;;;;5115602;28;20054;-73
2022/03/31 02:12:19;;;;;;;6.53;1.38;;;3.10;99.90;;;;;;5115162;28;20106;-73
2022/03/31 02:14:45;;;;;;;4.43;1.33;;;3.10;99.90;;;;;;5115052;28;20058;-73
2022/03/31 02:17:13;;;;;;;9.30;1.20;;;3.10;99.90;;;;;;5115156;28;20070;-73
2022/03/31 02:19:39;;;;;;;3.63;1.08;;;3.10;99.90;;;;;;5080269;28;20043;-73
2022/03/31 02:22:06;;;;;;;2.97;1.15;;;3.10;99.90;;;;;;5096258;28;20101;-73
2022/03/31 02:24:35;;;;;;;7.30;2.13;;;3.10;99.90;;;;;;5096403;28;20040;-74
2022/03/31 02:27:01;;;;;;;7.35;1.42;;;3.10;99.90;;;;;;5115023;28;20491;-73
2022/03/31 02:29:27;;;;;;;6.07;1.30;;;3.10;99.90;;;;;;5096270;28;20151;-73
2022/03/31 02:31:53;;;;;;;6.07;1.70;;;3.10;99.90;;;;;;5096375;28;20068;-73
2022/03/31 02:34:19;;;;;;;11.02;1.38;;;3.10;99.90;;;;;;5096912;28;20078;-73
2022/03/31 02:36:46;;;;;;;5.07;1.27;;;3.10;99.90;;;;;;5096136;28;20050;-73
2022/03/31 02:39:12;;;;;;;4.55;1.55;;;3.00;99.90;;;;;;5076668;28;20044;-73
2022/03/31 02:41:38;;;;;;;4.45;1.30;;;3.10;99.90;;;;;;5094666;28;20052;-73
2022/03/31 02:44:06;;;;;;;4.13;1.00;;;3.10;99.90;;;;;;5095048;28;20035;-73
2022/03/31 02:46:32;;;;;;;3.55;2.28;;;3.10;99.90;;;;;;5114312;28;20046;-74
2022/03/31 02:48:59;;;;;;;4.75;1.00;;;3.10;99.90;;;;;;5096935;28;20048;-73
2022/03/31 02:51:25;;;;;;;6.15;1.20;;;3.10;99.90;;;;;;5113736;28;20056;-74
2022/03/31 02:56:37;;;;;;;4.55;1.48;;;3.10;99.90;;;;;;5113911;28;20123;-74
2022/03/31 02:59:04;;;;;;;5.63;1.48;;;3.10;99.90;;;;;;5096391;28;20047;-74
2022/03/31 03:01:30;;;;;;;3.65;1.73;;;3.10;99.90;;;;;;5096287;28;20134;-73
2022/03/31 03:03:57;;;;;;;6.65;2.15;;;3.10;99.90;;;;;;5095781;28;20173;-73
2022/03/31 03:06:23;;;;;;;6.72;2.10;;;3.10;99.90;;;;;;5114072;28;20114;-73
2022/03/31 03:08:49;;;;;;;8.73;3.75;;;3.10;99.90;;;;;;5096426;28;20136;-72
2022/03/31 03:11:15;;;;;;;5.93;3.20;;;3.10;99.90;;;;;;5095445;28;20173;-72
2022/03/31 03:13:41;;;;;;;6.53;3.45;;;3.10;99.90;;;;;;5114260;28;20101;-72
2022/03/31 03:16:08;;;;;;;6.97;3.70;;;3.10;99.90;;;;;;5114173;28;20044;-72
2022/03/31 03:18:38;;;;;;;4.88;3.63;;;3.10;99.90;;;;;;5113579;28;20047;-73
2022/03/31 03:21:06;;;;;;;5.50;3.72;;;3.00;99.90;;;;;;5113990;28;20040;-73
2022/03/31 03:23:33;;;;;;;10.75;4.25;;;3.00;99.90;;;;;;5078935;28;20457;-73
2022/03/31 03:26:01;;;;;;;7.40;4.18;;;3.00;99.90;;;;;;5095475;28;20051;-73
2022/03/31 03:28:27;;;;;;;5.85;4.35;;;3.00;99.90;;;;;;5113795;28;20109;-73
2022/03/31 03:30:53;;;;;;;7.65;3.92;;;2.90;99.90;;;;;;5114292;28;20128;-73
2022/03/31 03:33:19;;;;;;;7.80;4.00;;;2.90;99.90;;;;;;5112902;28;20121;-73
2022/03/31 03:35:45;;;;;;;24.30;9.20;;;2.90;99.90;;;;;;5095806;28;20059;-73
2022/03/31 03:38:11;;;;;;;9.48;4.78;;;2.90;99.90;;;;;;5095860;28;20391;-73
2022/03/31 03:40:37;;;;;;;8.30;4.95;;;2.90;99.90;;;;;;5113393;28;20120;-73
2022/03/31 03:43:04;;;;;;;9.18;5.57;;;2.90;99.90;;;;;;5095193;28;20046;-73
2022/03/31 03:45:30;;;;;;;10.13;4.43;;;2.90;99.90;;;;;;5095650;28;20093;-73
2022/03/31 03:47:58;;;;;;;6.18;4.05;;;2.80;99.90;;;;;;5094880;28;20051;-73
2022/03/31 03:50:25;;;;;;;8.48;4.53;;;2.90;99.90;;;;;;5095756;28;20131;-73
2022/03/31 03:52:51;;;;;;;5.10;4.15;;;2.80;99.90;;;;;;5113092;28;20070;-73
2022/03/31 03:55:17;;;;;;;7.30;3.70;;;2.80;99.90;;;;;;5095172;28;20479;-73
2022/03/31 03:57:43;;;;;;;5.57;4.30;;;2.80;99.90;;;;;;5113535;28;20050;-73
2022/03/31 04:00:10;;;;;;;5.28;3.53;;;2.80;99.90;;;;;;5113156;28;20039;-74
2022/03/31 04:02:37;;;;;;;5.93;3.40;;;2.70;99.90;;;;;;5095152;28;20059;-73
2022/03/31 04:05:04;;;;;;;8.20;4.00;;;2.70;99.90;;;;;;5093644;28;20104;-73
2022/03/31 04:07:30;;;;;;;3.42;2.97;;;2.60;99.90;;;;;;5094423;28;20048;-73
2022/03/31 04:09:56;;;;;;;5.35;3.53;;;2.60;99.90;;;;;;5113429;28;20542;-73
2022/03/31 04:12:22;;;;;;;3.67;2.80;;;2.60;99.90;;;;;;5113228;28;20502;-73
2022/03/31 04:14:49;;;;;;;18.92;8.68;;;2.60;99.90;;;;;;5113079;28;20503;-73
2022/03/31 04:17:16;;;;;;;3.60;2.72;;;2.60;99.90;;;;;;5113222;28;20490;-73
2022/03/31 04:19:43;;;;;;;3.80;2.80;;;2.60;99.90;;;;;;5095492;28;20518;-73
2022/03/31 04:22:09;;;;;;;3.30;2.35;;;2.60;99.90;;;;;;5112715;28;20159;-73
2022/03/31 04:24:35;;;;;;;4.03;2.22;;;2.60;99.90;;;;;;5113033;28;20108;-73
2022/03/31 04:27:01;;;;;;;5.00;2.25;;;2.60;99.90;;;;;;5095595;28;20043;-73
2022/03/31 04:29:27;;;;;;;1.95;1.75;;;2.60;99.90;;;;;;5094535;28;20414;-73
2022/03/31 04:31:54;;;;;;;2.15;1.85;;;2.60;99.90;;;;;;5113525;28;20063;-74
2022/03/31 04:34:21;;;;;;;2.83;1.88;;;2.60;99.90;;;;;;5113301;28;20211;-74
2022/03/31 04:36:47;;;;;;;2.20;2.00;;;2.70;99.90;;;;;;5094105;28;20043;-73
2022/03/31 04:39:14;;;;;;;4.45;1.90;;;2.70;99.90;;;;;;5113085;28;20134;-74
2022/03/31 04:41:40;;;;;;;4.20;2.20;;;2.70;99.90;;;;;;5095065;28;20055;-73
2022/03/31 04:44:07;;;;;;;3.80;2.30;;;2.60;99.90;;;;;;5112751;28;20070;-73
2022/03/31 04:46:33;;;;;;;3.20;2.30;;;2.60;99.90;;;;;;5116605;28;20174;-74
2022/03/31 04:49:00;;;;;;;2.35;2.10;;;2.60;99.90;;;;;;5116448;28;20048;-73
2022/03/31 04:51:26;;;;;;;2.78;2.33;;;2.60;99.90;;;;;;5116510;28;20129;-71
2022/03/31 04:53:52;;;;;;;2.85;2.25;;;2.60;99.90;;;;;;5117024;28;20047;-72
2022/03/31 04:56:17;;;;;;;4.88;2.50;;;2.60;99.90;;;;;;5098010;28;20054;-73
2022/03/31 04:58:44;;;;;;;3.55;2.85;;;2.50;99.90;;;;;;5098537;28;20043;-73
2022/03/31 05:01:10;;;;;;;3.63;3.10;;;2.50;99.90;;;;;;5116889;28;20422;-73
2022/03/31 05:03:37;;;;;;;4.95;3.50;;;2.50;99.90;;;;;;5097760;28;20051;-73
2022/03/31 05:06:04;;;;;;;4.63;3.75;;;2.40;99.90;;;;;;5098029;28;20047;-73
2022/03/31 05:08:30;;;;;;;6.68;4.25;;;2.40;99.90;;;;;;5081625;28;20126;-73
2022/03/31 05:10:56;;;;;;;6.80;5.68;;;2.40;99.90;;;;;;5116145;28;20130;-74
2022/03/31 05:13:21;;;;;;;8.35;5.20;;;2.30;99.90;;;;;;5097980;28;20525;-73
2022/03/31 05:15:47;;;;;;;7.25;5.40;;;2.30;99.90;;;;;;5073385;28;20040;-73
2022/03/31 05:18:13;;;;;;;8.90;6.85;;;2.30;99.90;;;;;;5094435;28;20047;-73
2022/03/31 05:20:40;;;;;;;9.60;6.53;;;2.20;99.90;;;;;;5098506;28;20047;-74
2022/03/31 05:23:06;;;;;;;10.02;5.70;;;2.20;99.90;;;;;;5093762;28;20512;-74
2022/03/31 05:25:31;;;;;;;7.30;6.60;;;2.20;99.90;;;;;;5116105;28;20039;-73
2022/03/31 05:27:59;;;;;;;24.48;12.55;;;2.20;99.90;;;;;;5093446;28;20395;-75
2022/03/31 05:30:26;;;;;;;6.00;5.07;;;2.10;99.90;;;;;;5096184;28;20047;-73
2022/03/31 05:32:53;;;;;;;8.95;5.93;;;2.10;99.90;;;;;;5060618;28;20522;-72
2022/03/31 05:35:20;;;;;;;8.20;6.32;;;2.10;99.90;;;;;;5077768;28;20048;-73
2022/03/31 05:37:47;;;;;;;9.90;5.43;;;2.10;99.90;;;;;;5077536;28;20051;-73
2022/03/31 05:40:13;;;;;;;8.32;4.20;;;2.20;99.90;;;;;;5077204;28;20051;-74
2022/03/31 05:42:40;;;;;;;8.50;6.15;;;2.20;99.90;;;;;;5105955;28;20040;-73
2022/03/31 05:45:07;;;;;;;5.30;4.40;;;2.20;99.90;;;;;;5116293;28;20036;-73
2022/03/31 05:47:33;;;;;;;5.38;4.85;;;2.20;99.90;;;;;;5115044;28;20040;-73
2022/03/31 05:49:59;;;;;;;6.18;4.18;;;2.20;99.90;;;;;;5115982;28;20053;-73
2022/03/31 05:52:25;;;;;;;5.03;4.32;;;2.20;99.90;;;;;;5093431;28;20054;-73
2022/03/31 05:54:50;;;;;;;4.78;4.28;;;2.20;99.90;;;;;;5077434;28;20060;-72
2022/03/31 05:57:17;;;;;;;7.05;3.47;;;2.20;99.90;;;;;;5108631;28;20391;-73
2022/03/31 05:59:43;;;;;;;4.72;3.38;;;2.20;99.90;;;;;;5115445;28;20178;-72
2022/03/31 06:02:11;;;;;;;5.00;3.45;;;2.20;99.90;;;;;;5115015;28;20039;-73
2022/03/31 06:04:37;;;;;;;4.35;3.28;;;2.20;99.90;;;;;;5080833;28;20096;-74
2022/03/31 06:07:04;;;;;;;4.22;3.00;;;2.30;99.90;;;;;;5114869;28;20539;-73
2022/03/31 06:09:30;;;;;;;5.40;3.33;;;2.30;99.90;;;;;;5097440;28;20052;-73
2022/03/31 06:11:56;;;;;;;4.97;3.30;;;2.30;99.90;;;;;;5115163;28;20051;-73
2022/03/31 06:14:22;;;;;;;5.97;3.67;;;2.30;99.90;;;;;;5096528;28;20398;-74
2022/03/31 06:16:49;;;;;;;3.67;3.35;;;2.30;99.90;;;;;;5115104;28;20062;-73
2022/03/31 06:19:15;;;;;;;6.70;3.42;;;2.40;99.90;;;;;;5097422;28;20100;-72
2022/03/31 06:21:41;;;;;;;8.73;5.60;;;2.40;99.90;;;;;;5114401;28;20043;-72
2022/03/31 06:24:07;;;;;;;13.75;6.75;;;2.40;99.90;;;;;;5115299;28;20079;-73
2022/03/31 06:26:34;;;;;;;7.60;3.10;;;2.50;99.90;;;;;;5115124;28;20395;-73
2022/03/31 06:29:00;;;;;;;5.82;3.58;;;2.50;99.90;;;;;;5096498;28;20111;-73
2022/03/31 06:31:27;;;;;;;6.93;3.95;;;2.50;99.90;;;;;;5096658;28;20043;-71
2022/03/31 06:33:53;;;;;;;11.25;4.32;;;2.50;99.90;;;;;;5096001;28;20130;-73
2022/03/31 06:36:19;;;;;;;4.32;3.25;;;2.60;99.90;;;;;;5094740;28;20127;-73
2022/03/31 06:38:46;;;;;;;5.85;2.80;;;2.60;99.90;;;;;;5101723;28;20047;-72
2022/03/31 06:41:15;;;;;;;4.03;3.13;;;2.70;99.90;;;;;;5087589;28;20509;-72
2022/03/31 06:43:46;;;;;;;4.57;3.38;;;2.70;99.90;;;;;;5113847;28;20043;-73
2022/03/31 06:46:13;;;;;;;5.93;4.07;;;2.70;99.90;;;;;;5114517;28;20079;-72
2022/03/31 06:48:42;;;;;;;5.30;4.50;;;2.80;99.90;;;;;;5059701;28;20048;-73
2022/03/31 06:51:10;;;;;;;3.97;3.55;;;2.80;99.90;;;;;;5093792;28;20514;-73
2022/03/31 06:53:37;;;;;;;7.07;4.32;;;2.80;99.90;;;;;;5076149;28;20044;-73
2022/03/31 06:56:04;;;;;;;3.70;3.30;;;2.90;99.90;;;;;;5112926;28;20122;-73
2022/03/31 06:58:30;;;;;;;6.07;5.45;;;2.90;99.90;;;;;;5094007;28;20052;-72
2022/03/31 07:00:59;;;;;;;6.43;4.90;;;2.90;99.90;;;;;;5093583;28;20047;-73
2022/03/31 07:03:25;;;;;;;5.95;5.35;;;3.00;99.90;;;;;;5113742;28;20096;-72
2022/03/31 07:05:51;;;;;;;6.63;5.45;;;3.00;99.90;;;;;;5114230;28;20039;-73
2022/03/31 07:08:18;;;;;;;6.20;5.20;;;3.10;99.90;;;;;;5113744;28;20120;-72
2022/03/31 07:10:47;;;;;;;6.30;5.30;;;3.10;99.90;;;;;;5095973;28;20097;-73
2022/03/31 07:13:14;;;;;;;5.35;4.82;;;3.20;99.90;;;;;;5096108;28;20055;-73
2022/03/31 07:15:42;;;;;;;6.30;5.68;;;3.20;99.90;;;;;;5113907;28;20052;-72
2022/03/31 07:18:08;;;;;;;6.10;4.97;;;3.20;99.90;;;;;;5113902;28;20386;-73
2022/03/31 07:20:36;;;;;;;5.50;4.75;;;3.20;99.90;;;;;;5095662;28;20054;-72
2022/03/31 07:23:02;;;;;;;4.80;4.30;;;3.30;99.90;;;;;;5096072;28;20415;-73
2022/03/31 07:25:29;;;;;;;4.90;4.40;;;3.30;99.90;;;;;;5094984;28;20046;-72
2022/03/31 07:27:55;;;;;;;4.32;3.92;;;3.30;99.90;;;;;;5095741;28;20044;-73
2022/03/31 07:30:22;;;;;;;5.47;4.68;;;3.30;99.90;;;;;;5095493;28;20064;-73
2022/03/31 07:32:51;;;;;;;4.30;3.90;;;3.30;99.90;;;;;;5095013;28;20126;-73
2022/03/31 07:35:17;;;;;;;4.35;3.95;;;3.40;99.90;;;;;;5095805;28;20100;-73
2022/03/31 07:37:43;;;;;;;4.95;4.43;;;3.40;99.90;;;;;;5113411;28;20075;-73
2022/03/31 07:40:10;;;;;;;5.15;3.55;;;3.40;99.90;;;;;;5095156;28;20517;-73
2022/03/31 07:42:36;;;;;;;4.18;3.78;;;3.40;99.90;;;;;;5114004;28;20391;-73
2022/03/31 07:45:02;;;;;;;4.60;4.20;;;3.30;99.90;;;;;;5094733;28;20043;-71
2022/03/31 07:47:28;;;;;;;5.57;4.95;;;3.30;99.90;;;;;;5095412;28;20069;-72
2022/03/31 07:49:53;;;;;;;4.38;3.97;;;3.30;99.90;;;;;;5113660;28;20039;-72
2022/03/31 07:52:21;;;;;;;4.57;4.18;;;3.30;99.90;;;;;;5094678;28;20047;-73
2022/03/31 07:54:48;;;;;;;5.05;4.55;;;3.30;99.90;;;;;;5113252;28;20096;-73
2022/03/31 07:57:14;;;;;;;4.97;4.35;;;3.30;99.90;;;;;;5095310;28;20047;-74
2022/03/31 07:59:40;;;;;;;4.97;4.47;;;3.30;99.90;;;;;;5095164;28;20055;-73
2022/03/31 08:02:06;;;;;;;4.70;4.30;;;3.30;99.90;;;;;;5113455;28;20036;-75
2022/03/31 08:04:32;;;;;;;6.05;5.45;;;3.30;99.90;;;;;;5113330;28;20039;-73
2022/03/31 08:06:59;;;;;;;6.80;6.15;;;3.30;99.90;;;;;;5095123;28;20096;-73
2022/03/31 08:09:25;;;;;;;6.00;5.50;;;3.30;99.90;;;;;;5113091;28;20082;-73
2022/03/31 08:11:51;;;;;;;6.22;5.63;;;3.30;99.90;;;;;;5113705;28;20044;-73
2022/03/31 08:14:21;;;;;;;5.70;5.10;;;3.30;99.90;;;;;;5077927;28;20109;-74
2022/03/31 08:16:50;;;;;;;6.80;6.20;;;3.30;99.90;;;;;;5102692;28;20032;-73
2022/03/31 08:19:17;;;;;;;5.85;5.35;;;3.30;99.90;;;;;;5115042;28;20036;-73
2022/03/31 08:21:44;;;;;;;5.97;5.43;;;3.30;99.90;;;;;;5097996;28;20475;-73
2022/03/31 08:24:13;;;;;;;6.88;5.40;;;3.30;99.90;;;;;;5117342;28;20101;-72
2022/03/31 08:26:40;;;;;;;5.68;5.05;;;3.30;99.90;;;;;;5117370;28;20059;-73
2022/03/31 08:29:10;;;;;;;6.07;5.47;;;3.30;99.90;;;;;;5098203;28;20055;-73
2022/03/31 08:31:37;;;;;;;5.60;5.10;;;3.30;99.90;;;;;;5082417;28;20096;-73
2022/03/31 08:34:04;;;;;;;5.85;5.28;;;3.30;99.90;;;;;;5098235;28;20059;-73
2022/03/31 08:36:30;;;;;;;5.68;5.18;;;3.30;99.90;;;;;;5117130;28;20105;-73
2022/03/31 08:38:57;;;;;;;5.90;5.30;;;3.30;99.90;;;;;;5098133;28;20048;-73
2022/03/31 08:41:25;;;;;;;4.28;3.88;;;3.30;99.90;;;;;;5116920;28;20040;-74
2022/03/31 08:43:51;;;;;;;5.88;5.28;;;3.30;99.90;;;;;;5098933;28;20051;-75
2022/03/31 08:46:18;;;;;;;5.40;4.70;;;3.30;99.90;;;;;;5117246;28;20494;-73
2022/03/31 08:48:44;;;;;;;4.85;4.35;;;3.30;99.90;;;;;;5098295;28;20043;-73
2022/03/31 08:51:10;;;;;;;4.20;3.80;;;3.30;99.90;;;;;;5098595;28;20058;-74
2022/03/31 08:53:37;;;;;;;4.63;4.18;;;3.30;99.90;;;;;;5098727;28;20043;-73
2022/03/31 08:56:03;;;;;;;6.57;4.90;;;3.30;99.90;;;;;;5098323;28;20050;-73
2022/03/31 08:58:30;;;;;;;4.93;4.43;;;3.30;99.90;;;;;;5081480;28;20487;-73
2022/03/31 09:00:57;;;;;;;5.28;4.78;;;3.30;99.90;;;;;;5116962;28;20058;-73
2022/03/31 09:03:33;;;;;;;4.90;4.40;;;3.30;99.90;;;;;;5115949;28;20564;-73
2022/03/31 09:05:59;;;;;;;5.70;5.07;;;3.30;99.90;;;;;;5116842;28;20048;-74
2022/03/31 09:08:25;;;;;;;4.75;4.25;;;3.20;99.90;;;;;;5116618;28;20491;-73
2022/03/31 09:10:54;;;;;;;3.65;3.10;;;3.20;99.90;;;;;;5116277;28;20045;-74
2022/03/31 09:13:23;;;;;;;4.90;4.43;;;3.20;99.90;;;;;;5097888;28;20062;-73
2022/03/31 09:15:49;;;;;;;4.75;4.25;;;3.20;99.90;;;;;;5098297;28;20065;-74
2022/03/31 09:18:18;;;;;;;7.05;5.80;;;3.10;99.90;;;;;;5097271;28;20122;-73
2022/03/31 09:20:46;;;;;;;6.13;5.53;;;3.10;99.90;;;;;;5115457;28;20040;-74
2022/03/31 09:23:19;;;;;;;6.20;5.60;;;3.10;99.90;;;;;;5097001;28;20055;-73
2022/03/31 09:25:46;;;;;;;5.40;4.90;;;3.00;99.90;;;;;;5116012;28;20044;-76
2022/03/31 09:28:18;;;;;;;5.60;5.10;;;3.00;99.90;;;;;;5094898;28;20044;-74
2022/03/31 09:30:46;;;;;;;5.93;5.32;;;3.00;99.90;;;;;;5113954;28;20498;-73
2022/03/31 09:33:12;;;;;;;5.55;4.80;;;2.90;99.90;;;;;;5114994;28;20099;-73
2022/03/31 09:35:38;;;;;;;6.93;5.35;;;2.80;99.90;;;;;;5097298;28;20487;-74
2022/03/31 09:38:13;;;;;;;7.13;6.25;;;2.80;99.90;;;;;;5096693;28;20044;-73
2022/03/31 09:40:39;;;;;;;5.70;5.20;;;2.80;99.90;;;;;;5085462;28;20367;-74
2022/03/31 09:43:05;;;;;;;8.02;5.32;;;2.70;99.90;;;;;;5113707;28;20040;-74
2022/03/31 09:45:41;;;;;;;5.82;5.20;;;2.70;99.90;;;;;;5114787;28;20070;-72
2022/03/31 09:48:21;;;;;;;6.88;5.88;;;2.70;99.90;;;;;;5097615;28;20390;-73
2022/03/31 09:50:48;;;;;;;6.60;5.90;;;2.60;99.90;;;;;;5097228;28;20376;-73
2022/03/31 09:53:14;;;;;;;6.80;5.95;;;2.60;99.90;;;;;;5115268;28;20402;-74
2022/03/31 09:55:42;;;;;;;9.02;7.43;;;2.60;99.90;;;;;;5115576;28;20075;-75
2022/03/31 09:58:08;;;;;;;5.65;5.03;;;2.70;99.90;;;;;;5097521;28;20058;-75
2022/03/31 10:00:34;;;;;;;8.07;7.10;;;2.60;99.90;;;;;;5096618;28;20043;-75
2022/03/31 10:03:01;;;;;;;8.25;7.35;;;2.60;99.90;;;;;;5115678;28;20130;-75
2022/03/31 10:05:28;;;;;;;7.85;6.70;;;2.50;99.90;;;;;;5079560;28;20058;-75
2022/03/31 10:07:55;;;;;;;6.97;5.43;;;2.50;99.90;;;;;;5097138;28;20039;-75
2022/03/31 10:10:21;;;;;;;7.05;6.30;;;2.50;99.90;;;;;;5079886;28;20494;-75
2022/03/31 10:13:07;;;;;;;7.63;6.82;;;2.40;99.90;;;;;;5097059;28;20079;-76
2022/03/31 10:15:38;;;;;;;7.65;6.00;;;2.40;99.90;;;;;;5096974;28;20051;-75
2022/03/31 10:18:04;;;;;;;7.75;5.82;;;2.40;99.90;;;;;;5115176;28;20043;-76
2022/03/31 10:20:30;;;;;;;6.80;5.22;;;2.30;99.90;;;;;;5096482;28;20128;-75
2022/03/31 10:25:45;;;;;;;5.20;4.68;;;2.10;99.90;;;;;;5097058;28;20056;-75
2022/03/31 10:28:22;;;;;;;5.38;4.28;;;2.10;99.90;;;;;;5095994;28;20043;-75
2022/03/31 10:30:56;;;;;;;4.60;3.70;;;2.00;99.90;;;;;;5097367;28;20059;-76
2022/03/31 10:33:34;;;;;;;4.88;3.78;;;2.00;99.90;;;;;;5115177;28;20040;-76
2022/03/31 10:36:05;;;;;;;4.55;4.03;;;2.00;99.90;;;;;;5114750;28;20047;-76
2022/03/31 10:38:33;;;;;;;4.82;4.32;;;1.90;99.90;;;;;;5114957;28;20108;-76
2022/03/31 10:41:17;;;;;;;7.22;4.78;;;1.90;99.90;;;;;;5096248;28;20052;-76
2022/03/31 10:43:47;;;;;;;7.25;4.60;;;1.80;99.90;;;;;;5113570;28;20039;-76
2022/03/31 10:46:18;;;;;;;5.65;4.82;;;1.90;99.90;;;;;;5114596;28;20040;-76
2022/03/31 10:48:49;;;;;;;5.45;4.70;;;1.90;99.90;;;;;;5096165;28;20044;-76
2022/03/31 10:51:15;;;;;;;5.28;3.85;;;1.90;99.90;;;;;;5095823;28;20064;-76
2022/03/31 10:53:49;;;;;;;4.47;3.85;;;1.90;99.90;;;;;;5114764;28;20044;-75
2022/03/31 10:56:26;;;;;;;5.28;4.43;;;1.90;99.90;;;;;;5113585;28;21047;-76
2022/03/31 10:58:57;;;;;;;6.00;5.10;;;1.90;99.90;;;;;;5079478;28;20039;-75
2022/03/31 11:01:27;;;;;;;5.47;4.60;;;1.90;99.90;;;;;;5114318;28;20055;-75
2022/03/31 11:04:01;;;;;;;5.40;4.70;;;1.90;99.90;;;;;;5113534;28;20483;-75
2022/03/31 11:06:28;;;;;;;6.18;4.82;;;2.00;99.90;;;;;;5092735;28;20047;-75
2022/03/31 11:08:54;;;;;;;5.47;4.32;;;2.00;99.90;;;;;;5093765;28;20048;-75
2022/03/31 11:11:28;;;;;;;5.57;4.72;;;2.10;99.90;;;;;;5083454;28;20536;-75
2022/03/31 11:13:58;;;;;;;4.70;4.05;;;2.00;99.90;;;;;;5114647;28;20043;-76
2022/03/31 11:16:37;;;;;;;4.88;4.38;;;2.00;99.90;;;;;;5071840;28;20032;-75
2022/03/31 11:19:04;;;;;;;5.00;4.07;;;2.00;99.90;;;;;;5102381;28;20100;-77
2022/03/31 11:21:38;;;;;;;4.25;3.63;;;2.00;99.90;;;;;;5114142;28;20047;-74
2022/03/31 11:24:06;;;;;;;3.90;3.50;;;2.00;99.90;;;;;;5095400;28;20135;-75
2022/03/31 11:26:46;;;;;;;2.90;2.60;;;2.00;99.90;;;;;;5079355;28;20055;-76
2022/03/31 11:29:17;;;;;;;4.13;3.72;;;2.00;99.90;;;;;;5101062;28;20040;-76
2022/03/31 11:31:49;;;;;;;3.58;3.08;;;2.00;99.90;;;;;;5095034;28;20043;-75
2022/03/31 11:34:26;;;;;;;3.75;3.33;;;2.00;99.90;;;;;;5095809;28;20054;-75
2022/03/31 11:36:53;;;;;;;3.33;3.03;;;2.00;99.90;;;;;;5113401;28;20395;-76
2022/03/31 11:39:21;;;;;;;4.20;3.33;;;1.90;99.90;;;;;;5095447;28;20085;-77
2022/03/31 11:41:47;;;;;;;2.60;2.40;;;1.90;99.90;;;;;;5113977;28;20036;-75
2022/03/31 11:44:13;;;;;;;3.70;3.40;;;1.90;99.90;;;;;;5095066;28;20111;-76
2022/03/31 11:46:45;;;;;;;4.10;3.05;;;1.90;99.90;;;;;;5113583;28;20613;-75
2022/03/31 11:49:23;;;;;;;3.15;2.70;;;1.90;99.90;;;;;;5113576;28;20039;-75
2022/03/31 11:52:00;;;;;;;3.50;3.05;;;1.80;99.90;;;;;;5091443;28;20064;-77
2022/03/31 11:54:28;;;;;;;3.40;3.10;;;1.80;99.90;;;;;;5092623;28;20127;-76
2022/03/31 11:57:05;;;;;;;3.42;3.00;;;1.80;99.90;;;;;;5091874;28;20050;-76
2022/03/31 11:59:31;;;;;;;3.80;3.00;;;1.80;99.90;;;;;;5092567;28;20483;-76
2022/03/31 12:01:57;;;;;;;3.90;3.13;;;1.70;99.90;;;;;;5091978;28;20384;-75
2022/03/31 12:04:29;;;;;;;3.10;2.80;;;1.70;99.90;;;;;;5083055;28;20041;-76
2022/03/31 12:06:57;;;;;;;4.18;3.53;;;1.70;99.90;;;;;;5085131;28;20044;-75
2022/03/31 12:09:26;;;;;;;3.78;1.75;;;1.60;99.90;;;;;;5088547;28;20047;-75
2022/03/31 12:11:58;;;;;;;3.55;3.20;;;1.50;99.90;;;;;;5090624;28;20048;-75
2022/03/31 12:14:25;;;;;;;2.33;2.13;;;1.50;99.90;;;;;;5071634;28;20049;-75
2022/03/31 12:16:54;;;;;;;3.97;3.08;;;1.40;99.90;;;;;;5072049;28;20487;-76
2022/03/31 12:19:21;;;;;;;4.35;2.97;;;1.40;99.90;;;;;;5072575;28;20083;-75
2022/03/31 12:21:58;;;;;;;3.03;2.55;;;1.30;99.90;;;;;;5072635;28;20499;-77
2022/03/31 12:24:25;;;;;;;4.13;3.60;;;1.30;99.90;;;;;;5082618;28;20052;-76
2022/03/31 12:27:02;;;;;;;3.50;2.72;;;1.30;99.90;;;;;;5091205;28;20051;-79
2022/03/31 12:29:33;;;;;;;4.78;3.22;;;1.20;99.90;;;;;;5091491;28;20044;-76
2022/03/31 12:32:05;;;;;;;3.97;3.42;;;1.20;99.90;;;;;;5093116;28;20040;-76
2022/03/31 12:34:36;;;;;;;4.45;3.70;;;1.20;99.90;;;;;;5092098;28;20051;-77
2022/03/31 12:37:02;;;;;;;3.97;3.03;;;1.20;99.90;;;;;;5091823;28;20127;-76
2022/03/31 12:39:28;;;;;;;4.13;3.03;;;1.20;99.90;;;;;;5091507;28;20517;-76
2022/03/31 12:41:57;;;;;;;3.53;3.10;;;1.20;99.90;;;;;;5091901;28;20051;-76
2022/03/31 12:44:26;;;;;;;3.83;3.38;;;1.20;99.90;;;;;;5091580;28;20047;-75
2022/03/31 12:46:58;;;;;;;3.70;3.30;;;1.20;99.90;;;;;;5091648;28;20040;-75
2022/03/31 12:49:36;;;;;;;4.57;3.60;;;1.20;99.90;;;;;;5073934;28;20044;-75
2022/03/31 12:52:11;;;;;;;2.95;2.63;;;1.20;99.90;;;;;;5102100;28;20060;-75
2022/03/31 12:54:47;;;;;;;3.55;3.10;;;1.20;99.90;;;;;;5112465;28;20051;-75
2022/03/31 12:57:24;;;;;;;3.83;3.45;;;1.10;99.90;;;;;;5094504;28;20092;-75
2022/03/31 13:00:07;;;;;;;3.38;2.70;;;1.20;99.90;;;;;;5113409;28;20118;-75
2022/03/31 13:02:34;;;;;;;3.67;3.25;;;1.20;99.90;;;;;;5112131;28;20489;-74
2022/03/31 13:05:00;;;;;;;3.28;2.75;;;1.10;99.90;;;;;;5094716;28;20047;-74